createdAt,value
2019-03-24T00:00:28.584Z,3.27
2019-03-24T00:02:57.689Z,3.33
2019-03-24T00:05:26.675Z,3.70
2019-03-24T00:07:56.886Z,3.20
2019-03-24T00:10:26.021Z,4.80
2019-03-24T00:12:55.041Z,3.60
2019-03-24T00:15:26.611Z,3.63
2019-03-24T00:17:54.808Z,4.50
2019-03-24T00:20:23.873Z,3.83
2019-03-24T00:22:52.991Z,3.93
2019-03-24T00:25:21.952Z,3.70
2019-03-24T00:27:50.947Z,3.70
2019-03-24T00:30:20.047Z,4.80
2019-03-24T00:32:49.049Z,4.23
2019-03-24T00:35:18.029Z,3.73
2019-03-24T00:37:47.047Z,4.33
2019-03-24T00:40:16.021Z,3.93
2019-03-24T00:42:45.009Z,3.97
2019-03-24T00:45:13.983Z,4.40
2019-03-24T00:47:42.991Z,4.77
2019-03-24T00:50:12.083Z,4.30
2019-03-24T00:52:41.089Z,4.70
2019-03-24T00:55:10.224Z,4.10
2019-03-24T00:57:39.298Z,4.13
2019-03-24T01:00:08.602Z,4.67
2019-03-24T01:02:37.644Z,4.20
2019-03-24T01:05:06.940Z,5.00
2019-03-24T01:07:35.909Z,3.53
2019-03-24T01:10:05.416Z,4.77
2019-03-24T01:12:34.469Z,4.37
2019-03-24T01:15:04.051Z,4.20
2019-03-24T01:17:33.178Z,4.57
2019-03-24T01:20:02.185Z,5.00
2019-03-24T01:22:31.167Z,3.80
2019-03-24T01:25:00.161Z,4.90
2019-03-24T01:27:29.324Z,4.57
2019-03-24T01:29:58.400Z,4.63
2019-03-24T01:32:27.369Z,5.03
2019-03-24T01:34:56.438Z,4.37
2019-03-24T01:37:25.500Z,4.20
2019-03-24T01:39:54.530Z,4.67
2019-03-24T01:42:23.583Z,4.40
2019-03-24T01:44:52.577Z,4.80
2019-03-24T01:47:21.581Z,5.03
2019-03-24T01:49:50.567Z,4.30
2019-03-24T01:52:19.528Z,3.83
2019-03-24T01:54:48.550Z,4.17
2019-03-24T01:57:17.540Z,3.97
2019-03-24T01:59:46.552Z,4.43
2019-03-24T02:02:15.531Z,3.80
2019-03-24T02:04:44.588Z,4.83
2019-03-24T02:07:13.550Z,4.93
2019-03-24T02:09:42.593Z,3.87
2019-03-24T02:12:11.607Z,4.80
2019-03-24T02:14:40.600Z,4.07
2019-03-24T02:17:09.575Z,5.20
2019-03-24T02:19:38.577Z,3.87
2019-03-24T02:22:07.543Z,3.97
2019-03-24T02:24:36.502Z,4.03
2019-03-24T02:27:05.530Z,4.53
2019-03-24T02:29:34.674Z,4.13
2019-03-24T02:32:03.643Z,3.53
2019-03-24T02:34:32.650Z,3.80
2019-03-24T02:37:01.637Z,3.77
2019-03-24T02:39:30.725Z,4.00
2019-03-24T02:41:59.782Z,4.33
2019-03-24T02:44:28.804Z,4.73
2019-03-24T02:47:00.902Z,3.57
2019-03-24T02:49:31.633Z,3.03
2019-03-24T02:52:00.606Z,3.67
2019-03-24T02:54:29.658Z,3.57
2019-03-24T02:56:58.649Z,3.40
2019-03-24T02:59:27.691Z,4.40
2019-03-24T03:01:56.701Z,3.23
2019-03-24T03:04:25.763Z,3.53
2019-03-24T03:06:54.811Z,3.80
2019-03-24T03:09:23.791Z,3.57
2019-03-24T03:11:52.776Z,3.23
2019-03-24T03:14:21.793Z,3.37
2019-03-24T03:16:50.801Z,3.07
2019-03-24T03:19:19.798Z,2.83
2019-03-24T03:21:53.270Z,2.90
2019-03-24T03:24:22.296Z,3.00
2019-03-24T03:26:51.419Z,3.60
2019-03-24T03:29:20.448Z,2.83
2019-03-24T03:31:49.468Z,2.67
2019-03-24T03:34:18.506Z,3.67
2019-03-24T03:36:47.554Z,3.30
2019-03-24T03:39:16.613Z,3.50
2019-03-24T03:41:45.670Z,4.20
2019-03-24T03:44:14.657Z,3.13
2019-03-24T03:46:52.485Z,4.10
2019-03-24T03:49:14.471Z,2.77
2019-03-24T03:51:43.502Z,3.80
2019-03-24T03:54:12.518Z,4.30
2019-03-24T03:56:42.081Z,3.50
2019-03-24T03:59:11.124Z,3.73
2019-03-24T04:01:41.517Z,4.40
2019-03-24T04:04:10.585Z,3.00
2019-03-24T04:06:39.591Z,3.73
2019-03-24T04:09:10.410Z,3.90
2019-03-24T04:11:39.424Z,3.80
2019-03-24T04:14:08.400Z,3.07
2019-03-24T04:16:37.459Z,3.20
2019-03-24T04:19:06.663Z,3.10
2019-03-24T04:21:35.732Z,3.47
2019-03-24T04:24:07.131Z,3.87
2019-03-24T04:26:36.122Z,2.70
2019-03-24T04:29:05.188Z,3.33
2019-03-24T04:31:34.189Z,3.47
2019-03-24T04:34:03.156Z,3.13
2019-03-24T04:36:32.231Z,3.03
2019-03-24T04:39:01.213Z,3.40
2019-03-24T04:41:31.762Z,3.80
2019-03-24T04:44:00.853Z,3.80
2019-03-24T04:46:29.878Z,4.27
2019-03-24T04:48:58.839Z,3.80
2019-03-24T04:51:27.825Z,3.40
2019-03-24T04:53:56.830Z,4.33
2019-03-24T04:56:28.395Z,3.67
2019-03-24T04:59:00.006Z,4.03
2019-03-24T05:01:28.992Z,5.10
2019-03-24T05:03:58.090Z,4.33
2019-03-24T05:06:27.045Z,3.93
2019-03-24T05:08:56.269Z,4.23
2019-03-24T05:11:25.248Z,3.63
2019-03-24T05:13:54.312Z,3.70
2019-03-24T05:16:23.370Z,3.47
2019-03-24T05:18:52.342Z,4.13
2019-03-24T05:21:21.342Z,3.60
2019-03-24T05:23:50.411Z,3.40
2019-03-24T05:26:19.455Z,4.13
2019-03-24T05:28:48.443Z,3.93
2019-03-24T05:31:17.426Z,3.73
2019-03-24T05:33:46.390Z,3.83
2019-03-24T05:36:15.411Z,3.33
2019-03-24T05:38:44.481Z,3.47
2019-03-24T05:41:13.479Z,3.53
2019-03-24T05:43:42.686Z,3.43
2019-03-24T05:46:11.640Z,3.03
2019-03-24T05:48:40.646Z,3.80
2019-03-24T05:51:09.691Z,4.23
2019-03-24T05:53:38.779Z,3.53
2019-03-24T05:56:07.752Z,2.83
2019-03-24T05:58:36.760Z,2.93
2019-03-24T06:01:05.790Z,4.03
2019-03-24T06:03:34.763Z,3.53
2019-03-24T06:06:03.752Z,3.20
2019-03-24T06:08:32.754Z,3.67
2019-03-24T06:11:01.725Z,3.23
2019-03-24T06:13:30.792Z,3.73
2019-03-24T06:16:00.354Z,3.23
2019-03-24T06:18:29.415Z,3.47
2019-03-24T06:20:58.387Z,3.17
2019-03-24T06:23:27.451Z,3.30
2019-03-24T06:25:56.550Z,2.50
2019-03-24T06:28:25.587Z,3.10
2019-03-24T06:30:54.597Z,3.50
2019-03-24T06:33:23.574Z,2.50
2019-03-24T06:35:52.635Z,3.70
2019-03-24T06:38:21.602Z,3.47
2019-03-24T06:40:50.587Z,3.37
2019-03-24T06:43:19.582Z,3.50
2019-03-24T06:45:50.214Z,3.40
2019-03-24T06:48:19.325Z,3.87
2019-03-24T06:50:48.386Z,3.10
2019-03-24T06:53:17.358Z,3.87
2019-03-24T06:55:46.439Z,3.30
2019-03-24T06:58:15.577Z,3.73
2019-03-24T07:00:44.566Z,3.60
2019-03-24T07:03:13.558Z,3.27
2019-03-24T07:05:42.556Z,3.40
2019-03-24T07:08:11.636Z,3.07
2019-03-24T07:10:40.631Z,3.33
2019-03-24T07:13:09.605Z,3.13
2019-03-24T07:15:38.588Z,3.37
2019-03-24T07:18:08.724Z,3.50
2019-03-24T07:20:38.152Z,3.47
2019-03-24T07:23:07.294Z,3.83
2019-03-24T07:25:36.376Z,3.57
2019-03-24T07:28:05.508Z,2.87
2019-03-24T07:30:34.498Z,3.60
2019-03-24T07:33:03.482Z,4.07
2019-03-24T07:35:32.577Z,3.27
2019-03-24T07:38:01.556Z,3.13
2019-03-24T07:40:30.791Z,2.93
2019-03-24T07:42:59.815Z,3.90
2019-03-24T07:45:28.903Z,2.97
2019-03-24T07:47:57.873Z,3.23
2019-03-24T07:50:28.620Z,3.00
2019-03-24T07:53:00.700Z,3.57
2019-03-24T07:55:29.778Z,4.00
2019-03-24T07:58:00.970Z,3.60
2019-03-24T08:00:36.080Z,3.30
2019-03-24T08:03:08.782Z,3.23
2019-03-24T08:05:37.819Z,3.53
2019-03-24T08:08:06.863Z,3.90
2019-03-24T08:10:35.894Z,2.80
2019-03-24T08:13:07.297Z,2.67
2019-03-24T08:15:38.520Z,3.80
2019-03-24T08:18:07.562Z,3.47
2019-03-24T08:20:36.683Z,3.40
2019-03-24T08:23:09.812Z,3.47
2019-03-24T08:25:38.814Z,2.97
2019-03-24T08:28:07.935Z,3.03
2019-03-24T08:30:37.600Z,2.83
2019-03-24T08:33:06.833Z,3.30
2019-03-24T08:35:36.008Z,2.93
2019-03-24T08:38:05.514Z,2.60
2019-03-24T08:40:34.733Z,2.90
2019-03-24T08:43:04.144Z,2.80
2019-03-24T08:45:33.292Z,3.27
2019-03-24T08:48:02.309Z,2.50
2019-03-24T08:50:33.454Z,2.93
2019-03-24T08:53:04.053Z,2.70
2019-03-24T08:55:33.262Z,2.57
2019-03-24T08:58:04.696Z,2.57
2019-03-24T09:00:33.788Z,3.40
2019-03-24T09:03:07.609Z,2.43
2019-03-24T09:05:39.455Z,2.70
2019-03-24T09:08:11.626Z,2.63
2019-03-24T09:10:43.417Z,2.10
2019-03-24T09:13:12.624Z,2.37
2019-03-24T09:15:43.211Z,2.20
2019-03-24T09:18:12.577Z,1.90
2019-03-24T09:20:42.106Z,2.70
2019-03-24T09:23:11.268Z,2.63
2019-03-24T09:25:40.322Z,2.53
2019-03-24T09:28:09.383Z,2.27
2019-03-24T09:30:38.525Z,2.50
2019-03-24T09:33:07.607Z,2.60
2019-03-24T09:35:36.811Z,2.27
2019-03-24T09:38:05.943Z,2.00
2019-03-24T09:40:38.305Z,2.30
2019-03-24T09:43:09.978Z,2.10
2019-03-24T09:45:39.063Z,2.63
2019-03-24T09:48:08.513Z,2.17
2019-03-24T09:50:37.800Z,2.37
2019-03-24T09:53:06.898Z,2.47
2019-03-24T09:55:36.430Z,2.27
2019-03-24T09:58:05.547Z,3.70
2019-03-24T10:00:34.637Z,2.37
2019-03-24T10:03:04.545Z,2.80
2019-03-24T10:05:33.880Z,2.40
2019-03-24T10:08:03.153Z,3.27
2019-03-24T10:10:32.407Z,2.10
2019-03-24T10:13:01.707Z,2.90
2019-03-24T10:15:31.133Z,2.00
2019-03-24T10:18:00.408Z,2.47
2019-03-24T10:20:32.533Z,2.40
2019-03-24T10:23:01.739Z,2.47
2019-03-24T10:25:30.856Z,2.00
2019-03-24T10:27:59.956Z,2.10
2019-03-24T10:30:29.283Z,1.63
2019-03-24T10:32:58.438Z,1.90
2019-03-24T10:35:27.471Z,1.57
2019-03-24T10:37:56.554Z,1.93
2019-03-24T10:40:28.905Z,2.03
2019-03-24T10:42:56.308Z,2.07
2019-03-24T10:45:25.385Z,2.43
2019-03-24T10:47:54.466Z,2.33
2019-03-24T10:50:24.797Z,2.10
2019-03-24T10:52:53.889Z,2.10
2019-03-24T10:55:22.940Z,2.00
2019-03-24T10:57:52.024Z,2.30
2019-03-24T11:00:39.866Z,1.97
2019-03-24T11:03:09.189Z,2.33
2019-03-24T11:05:38.246Z,2.40
2019-03-24T11:08:07.504Z,2.30
2019-03-24T11:10:37.814Z,2.27
2019-03-24T11:13:06.819Z,2.77
2019-03-24T11:15:35.851Z,1.57
2019-03-24T11:18:04.972Z,1.87
2019-03-24T11:20:34.119Z,2.20
2019-03-24T11:23:03.244Z,2.27
2019-03-24T11:25:32.289Z,1.70
2019-03-24T11:28:03.459Z,1.27
2019-03-24T11:30:35.183Z,1.57
2019-03-24T11:33:04.212Z,1.57
2019-03-24T11:35:33.257Z,1.90
2019-03-24T11:38:02.255Z,1.80
2019-03-24T11:40:31.266Z,1.53
2019-03-24T11:43:00.259Z,1.43
2019-03-24T11:45:29.314Z,1.87
2019-03-24T11:47:58.383Z,1.83
2019-03-24T11:50:27.398Z,1.87
2019-03-24T11:52:56.549Z,1.63
2019-03-24T11:55:25.593Z,1.80
2019-03-24T11:58:05.092Z,1.50
2019-03-24T12:00:33.272Z,2.17
2019-03-24T12:03:02.412Z,1.47
2019-03-24T12:05:31.440Z,1.37
2019-03-24T12:08:00.463Z,1.50
2019-03-24T12:10:31.475Z,2.27
2019-03-24T12:13:00.263Z,1.50
2019-03-24T12:15:29.335Z,1.30
2019-03-24T12:17:58.343Z,2.10
2019-03-24T12:20:27.483Z,2.17
2019-03-24T12:22:56.484Z,1.93
2019-03-24T12:25:25.475Z,2.07
2019-03-24T12:27:54.603Z,1.80
2019-03-24T12:30:23.733Z,2.10
2019-03-24T12:32:52.827Z,1.23
2019-03-24T12:35:21.801Z,1.60
2019-03-24T12:37:53.829Z,1.50
2019-03-24T12:40:22.876Z,1.37
2019-03-24T12:42:51.982Z,1.47
2019-03-24T12:45:21.010Z,1.63
2019-03-24T12:47:50.027Z,1.73
2019-03-24T12:50:30.505Z,1.30
2019-03-24T12:52:49.817Z,1.67
2019-03-24T12:55:18.875Z,1.77
2019-03-24T12:57:47.956Z,1.10
2019-03-24T13:00:21.366Z,1.43
2019-03-24T13:02:50.480Z,1.50
2019-03-24T13:05:19.544Z,1.70
2019-03-24T13:07:50.032Z,1.10
2019-03-24T13:10:19.088Z,1.67
2019-03-24T13:12:48.115Z,1.27
2019-03-24T13:15:17.480Z,1.70
2019-03-24T13:17:46.461Z,1.60
2019-03-24T13:20:23.354Z,1.30
2019-03-24T13:22:46.252Z,1.47
2019-03-24T13:25:15.302Z,1.13
2019-03-24T13:27:44.451Z,1.30
2019-03-24T13:30:13.968Z,1.00
2019-03-24T13:32:42.970Z,1.20
2019-03-24T13:35:12.075Z,1.33
2019-03-24T13:37:41.143Z,1.60
2019-03-24T13:40:10.307Z,1.50
2019-03-24T13:42:39.350Z,1.50
2019-03-24T13:45:08.359Z,1.20
2019-03-24T13:47:37.365Z,1.50
2019-03-24T13:50:06.701Z,1.33
2019-03-24T13:52:35.823Z,1.83
2019-03-24T13:55:04.900Z,1.40
2019-03-24T13:57:34.116Z,1.37
2019-03-24T14:00:03.221Z,1.83
2019-03-24T14:02:34.332Z,1.30
2019-03-24T14:05:03.359Z,1.43
2019-03-24T14:07:32.470Z,2.10
2019-03-24T14:10:01.640Z,1.30
2019-03-24T14:12:30.832Z,1.37
2019-03-24T14:15:00.056Z,1.87
2019-03-24T14:17:29.100Z,1.37
2019-03-24T14:19:59.217Z,1.47
2019-03-24T14:22:28.376Z,1.60
2019-03-24T14:24:57.453Z,1.27
2019-03-24T14:27:26.570Z,1.57
2019-03-24T14:29:55.696Z,1.20
2019-03-24T14:32:24.829Z,1.13
2019-03-24T14:34:53.941Z,1.50
2019-03-24T14:37:23.058Z,1.30
2019-03-24T14:39:52.253Z,1.10
2019-03-24T14:42:21.515Z,1.27
2019-03-24T14:44:50.614Z,1.63
2019-03-24T14:47:19.625Z,1.50
2019-03-24T14:49:48.628Z,1.73
2019-03-24T14:52:17.682Z,1.33
2019-03-24T14:54:46.756Z,1.60
2019-03-24T14:57:15.770Z,1.53
2019-03-24T14:59:44.851Z,1.77
2019-03-24T15:02:16.576Z,1.53
2019-03-24T15:04:45.677Z,1.80
2019-03-24T15:07:14.704Z,2.00
2019-03-24T15:09:43.838Z,1.37
2019-03-24T15:12:13.020Z,1.30
2019-03-24T15:14:42.160Z,1.20
2019-03-24T15:17:11.181Z,1.90
2019-03-24T15:19:40.302Z,1.40
2019-03-24T15:22:09.329Z,1.73
2019-03-24T15:24:38.394Z,1.63
2019-03-24T15:27:07.446Z,1.87
2019-03-24T15:29:36.495Z,1.10
2019-03-24T15:32:05.692Z,1.27
2019-03-24T15:34:34.824Z,1.40
2019-03-24T15:37:03.913Z,1.73
2019-03-24T15:39:33.165Z,1.40
2019-03-24T15:42:02.203Z,1.47
2019-03-24T15:44:31.407Z,1.30
2019-03-24T15:47:00.481Z,1.50
2019-03-24T15:49:29.579Z,1.63
2019-03-24T15:51:58.581Z,1.60
2019-03-24T15:54:27.597Z,1.63
2019-03-24T15:56:56.655Z,1.50
2019-03-24T15:59:25.712Z,1.70
2019-03-24T16:01:54.784Z,1.80
2019-03-24T16:04:23.825Z,2.10
2019-03-24T16:06:54.811Z,1.30
2019-03-24T16:09:23.910Z,1.60
2019-03-24T16:11:52.951Z,2.27
2019-03-24T16:14:22.146Z,2.17
2019-03-24T16:16:51.291Z,1.93
2019-03-24T16:19:25.411Z,2.07
2019-03-24T16:21:54.159Z,1.80
2019-03-24T16:24:23.268Z,1.87
2019-03-24T16:26:52.272Z,2.00
2019-03-24T16:29:21.358Z,1.67
2019-03-24T16:31:50.479Z,1.87
2019-03-24T16:34:19.654Z,1.70
2019-03-24T16:36:48.641Z,2.27
2019-03-24T16:39:17.765Z,1.93
2019-03-24T16:41:46.813Z,1.90
2019-03-24T16:44:15.850Z,1.83
2019-03-24T16:46:44.968Z,1.70
2019-03-24T16:49:14.048Z,2.13
2019-03-24T16:51:43.133Z,1.97
2019-03-24T16:54:12.253Z,2.10
2019-03-24T16:56:41.438Z,1.50
2019-03-24T16:59:10.545Z,2.17
2019-03-24T17:01:39.687Z,2.67
2019-03-24T17:04:08.697Z,1.70
2019-03-24T17:06:37.701Z,1.47
2019-03-24T17:09:07.346Z,2.43
2019-03-24T17:11:36.331Z,1.93
2019-03-24T17:14:05.450Z,2.13
2019-03-24T17:16:34.512Z,2.07
2019-03-24T17:19:03.656Z,2.07
2019-03-24T17:21:32.711Z,1.90
2019-03-24T17:24:01.769Z,1.90
2019-03-24T17:26:30.833Z,1.83
2019-03-24T17:29:00.038Z,2.97
2019-03-24T17:31:29.131Z,2.03
2019-03-24T17:33:58.192Z,2.67
2019-03-24T17:36:27.225Z,3.10
2019-03-24T17:38:56.383Z,3.20
2019-03-24T17:41:25.703Z,2.73
2019-03-24T17:44:02.832Z,2.20
2019-03-24T17:46:25.563Z,2.20
2019-03-24T17:48:54.678Z,2.83
2019-03-24T17:51:23.777Z,2.50
2019-03-24T17:53:52.920Z,2.83
2019-03-24T17:56:22.124Z,2.80
2019-03-24T17:58:51.206Z,3.03
2019-03-24T18:01:23.424Z,5.30
2019-03-24T18:03:52.500Z,4.80
2019-03-24T18:06:21.645Z,2.33
2019-03-24T18:08:50.896Z,3.03
2019-03-24T18:11:20.089Z,2.23
2019-03-24T18:13:49.203Z,2.83
2019-03-24T18:16:18.530Z,3.37
2019-03-24T18:18:47.644Z,2.37
2019-03-24T18:21:16.843Z,3.07
2019-03-24T18:23:45.979Z,2.27
2019-03-24T18:26:15.123Z,2.10
2019-03-24T18:28:44.705Z,2.13
2019-03-24T18:31:13.892Z,2.20
2019-03-24T18:33:52.149Z,2.43
2019-03-24T18:36:28.999Z,2.07
2019-03-24T18:38:58.302Z,2.70
2019-03-24T18:41:27.456Z,2.20
2019-03-24T18:43:56.857Z,2.10
2019-03-24T18:46:26.267Z,2.20
2019-03-24T18:48:55.499Z,2.60
2019-03-24T18:51:24.728Z,2.23
2019-03-24T18:53:54.003Z,2.73
2019-03-24T18:56:23.462Z,2.73
2019-03-24T18:58:52.987Z,2.70
2019-03-24T19:01:23.091Z,2.23
2019-03-24T19:03:52.283Z,2.57
2019-03-24T19:06:21.462Z,1.77
2019-03-24T19:08:50.601Z,2.30
2019-03-24T19:11:20.634Z,2.00
2019-03-24T19:13:49.802Z,2.20
2019-03-24T19:16:19.073Z,2.60
2019-03-24T19:18:48.243Z,2.30
2019-03-24T19:21:17.474Z,2.37
2019-03-24T19:23:47.850Z,2.87
2019-03-24T19:26:17.078Z,2.53
2019-03-24T19:28:46.303Z,2.93
2019-03-24T19:31:15.517Z,3.00
2019-03-24T19:33:46.509Z,2.37
2019-03-24T19:36:15.726Z,2.13
2019-03-24T19:38:45.220Z,3.13
2019-03-24T19:41:14.482Z,4.10
2019-03-24T19:43:43.753Z,4.63
2019-03-24T19:46:13.112Z,2.60
2019-03-24T19:48:42.430Z,2.23
2019-03-24T19:51:14.700Z,2.70
2019-03-24T19:53:43.961Z,3.10
2019-03-24T19:56:13.200Z,3.03
2019-03-24T19:58:42.430Z,3.27
2019-03-24T20:01:11.681Z,3.23
2019-03-24T20:03:43.388Z,2.90
2019-03-24T20:06:12.796Z,2.40
2019-03-24T20:08:42.134Z,2.30
2019-03-24T20:11:11.466Z,4.67
2019-03-24T20:13:42.976Z,3.17
2019-03-24T20:16:12.178Z,2.80
2019-03-24T20:18:41.575Z,5.13
2019-03-24T20:21:10.819Z,3.30
2019-03-24T20:23:40.071Z,2.83
2019-03-24T20:26:11.682Z,3.17
2019-03-24T20:28:41.019Z,1.93
2019-03-24T20:31:10.262Z,2.20
2019-03-24T20:33:39.560Z,3.70
2019-03-24T20:36:08.857Z,3.03
2019-03-24T20:38:38.298Z,3.50
2019-03-24T20:41:07.535Z,2.40
2019-03-24T20:43:36.985Z,2.37
2019-03-24T20:46:06.207Z,2.27
2019-03-24T20:48:38.222Z,2.67
2019-03-24T20:51:07.414Z,2.03
2019-03-24T20:53:42.441Z,2.20
2019-03-24T20:56:11.554Z,2.20
2019-03-24T20:58:45.464Z,2.40
2019-03-24T21:01:14.750Z,4.10
2019-03-24T21:03:44.014Z,2.57
2019-03-24T21:06:13.379Z,2.23
2019-03-24T21:08:43.874Z,2.30
2019-03-24T21:11:12.984Z,1.83
2019-03-24T21:13:42.192Z,2.33
2019-03-24T21:16:11.310Z,2.13
2019-03-24T21:18:40.419Z,1.80
2019-03-24T21:21:09.494Z,2.40
2019-03-24T21:23:38.938Z,2.83
2019-03-24T21:26:08.107Z,5.63
2019-03-24T21:28:37.243Z,2.67
2019-03-24T21:31:06.326Z,3.07
2019-03-24T21:33:35.411Z,3.70
2019-03-24T21:36:04.635Z,5.40
2019-03-24T21:38:33.643Z,3.23
2019-03-24T21:41:03.204Z,2.17
2019-03-24T21:43:32.257Z,2.57
2019-03-24T21:46:03.385Z,4.33
2019-03-24T21:48:32.407Z,4.53
2019-03-24T21:51:01.510Z,4.27
2019-03-24T21:53:40.271Z,3.73
2019-03-24T21:56:01.314Z,2.60
2019-03-24T21:58:30.291Z,2.37
2019-03-24T22:00:59.415Z,1.90
2019-03-24T22:03:28.503Z,3.40
2019-03-24T22:05:57.529Z,4.33
2019-03-24T22:08:26.584Z,2.00
2019-03-24T22:10:55.669Z,1.67
2019-03-24T22:13:24.711Z,2.13
2019-03-24T22:15:53.703Z,2.07
2019-03-24T22:18:22.772Z,4.10
2019-03-24T22:20:51.856Z,2.63
2019-03-24T22:23:20.871Z,4.17
2019-03-24T22:25:49.925Z,3.53
2019-03-24T22:28:18.892Z,2.00
2019-03-24T22:30:48.476Z,3.83
2019-03-24T22:33:17.572Z,5.90
2019-03-24T22:35:47.261Z,2.40
2019-03-24T22:38:16.430Z,3.87
2019-03-24T22:40:45.502Z,3.53
2019-03-24T22:43:14.525Z,2.00
2019-03-24T22:45:43.608Z,1.93
2019-03-24T22:48:12.823Z,3.80
2019-03-24T22:50:41.956Z,4.27
2019-03-24T22:53:10.978Z,2.00
2019-03-24T22:55:40.017Z,3.20
2019-03-24T22:58:09.155Z,1.70
2019-03-24T23:00:57.532Z,2.03
2019-03-24T23:03:26.588Z,1.67
2019-03-24T23:05:55.644Z,2.20
2019-03-24T23:08:24.675Z,1.80
2019-03-24T23:10:53.676Z,1.70
2019-03-24T23:13:22.752Z,2.10
2019-03-24T23:15:53.643Z,1.63
2019-03-24T23:18:22.447Z,1.53
2019-03-24T23:20:51.506Z,1.67
2019-03-24T23:23:20.485Z,2.00
2019-03-24T23:25:51.739Z,2.00
2019-03-24T23:28:20.253Z,2.13
2019-03-24T23:30:49.297Z,2.03
2019-03-24T23:33:18.280Z,2.13
2019-03-24T23:35:50.691Z,1.57
2019-03-24T23:38:22.766Z,1.40
2019-03-24T23:40:52.033Z,1.27
2019-03-24T23:43:21.002Z,2.17
2019-03-24T23:45:50.039Z,2.40
2019-03-24T23:48:19.027Z,1.50
2019-03-24T23:50:51.567Z,1.53
2019-03-24T23:53:20.620Z,2.07
2019-03-24T23:55:49.598Z,1.90
2019-03-24T23:58:18.582Z,1.87
